Data for 06/23/2007

Time Sea-Level Adjusted Pressure Absolute Pressure Temperature Relative Humidity Dew Point   
(mb) (inHg) (mb) (inHg) (C) (F) (%) (C) (F)
00:05 1013 29.91 842 24.86 22.3 72.1 25 1.7 35.1
00:10 1013 29.91 842 24.86 22.4 72.2 19 -2 28.5
00:15 1013 29.91 842 24.86 22.5 72.6 23 0.5 32.9
00:20 1013 29.91 842 24.86 22.5 72.4 22 -0.3 31.5
00:25 1013 29.91 842 24.86 22.2 71.9 23 0.2 32.3
00:30 1013 29.91 842 24.86 21.8 71.3 24 0.3 32.5
00:35 1013 29.91 842 24.86 21.5 70.6 23 -0.2 31.7
00:40 1013 29.91 842 24.86 21.1 69.9 24 -0.4 31.3
00:45 1013 29.91 842 24.86 20.8 69.4 24 -0.4 31.3
00:50 1013 29.91 842 24.86 20.6 69.1 28 1.5 34.7
00:55 1013 29.91 842 24.86 20 68.1 26 0 32.1
01:00 1013 29.91 842 24.86 20.4 68.7 31 2.9 37.3
01:05 1013 29.91 843 24.89 19.6 67.3 31 2.2 36
01:10 1013 29.91 842 24.86 19.2 66.6 38 4.8 40.6
01:15 1013 29.91 842 24.86 18.5 65.3 40 4.9 40.8
01:20 1013 29.91 842 24.86 18.3 64.9 39 4.3 39.8
01:25 1013 29.91 842 24.86 18.5 65.3 37 3.8 38.8
01:30 1013 29.91 842 24.86 18.9 66 34 3 37.4
01:35 1013 29.91 842 24.86 19.6 67.3 31 2.4 36.3
01:40 1013 29.91 842 24.86 19.8 67.6 31 2.5 36.4
01:45 1013 29.91 842 24.86 19.9 67.8 30 2 35.6
01:50 1013 29.91 842 24.86 19.9 67.8 30 2.2 35.9
01:55 1013 29.91 842 24.86 19.6 67.3 32 2.7 36.9
02:00 1013 29.91 842 24.86 19.2 66.5 35 3.4 38.2
02:05 1013 29.91 843 24.89 18.7 65.6 34 2.7 36.9
02:10 1013 29.91 843 24.89 18.3 64.9 36 3 37.4
02:15 1013 29.91 843 24.89 17.9 64.1 37 3.2 37.7
02:20 1013 29.91 843 24.89 17.9 64.2 39 3.9 39
02:25 1013 29.91 842 24.86 18.1 64.6 34 2.2 35.9
02:30 1013 29.91 842 24.86 17.8 64 35 2.4 36.3
02:35 1013 29.91 842 24.86 17.4 63.4 38 3.1 37.6
02:40 1013 29.91 842 24.86 17.3 63.1 38 3.1 37.6
02:45 1013 29.91 842 24.86 17 62.6 36 2 35.6
02:50 1013 29.91 842 24.86 17 62.7 42 4 39.3
02:55 1013 29.91 842 24.86 17.1 62.8 35 1.7 35
03:00 1013 29.91 842 24.86 17.6 63.6 35 2.1 35.9
03:05 1013 29.91 842 24.86 17.1 62.7 35 1.7 35
03:10 1013 29.91 842 24.86 16.8 62.3 37 2.2 36
03:15 1013 29.91 842 24.86 16 60.7 43 3.6 38.5
03:20 1013 29.91 842 24.86 14.9 58.8 43 2.4 36.4
03:25 1013 29.91 842 24.86 15 59.1 39 1.4 34.5
03:30 1013 29.91 842 24.86 15.7 60.3 33 -0.5 31.1
03:35 1013 29.91 842 24.86 16.8 62.3 31 -0.2 31.6
03:40 1013 29.91 842 24.86 17 62.7 30 -0.5 31.1
03:45 1013 29.91 842 24.86 17.3 63.1 29 -0.8 30.6
03:50 1013 29.91 842 24.86 16.7 62.1 31 -0.3 31.4
03:55 1013 29.91 842 24.86 16.5 61.7 29 -1.5 29.3
04:00 1013 29.91 842 24.86 17.1 62.8 29 -1.1 30
04:05 1013 29.91 842 24.86 16.8 62.3 30 -0.6 30.9
04:10 1013 29.91 842 24.86 16.1 60.9 34 0.2 32.3
04:15 1013 29.91 842 24.86 15.4 59.7 33 -0.9 30.4
04:20 1013 29.91 842 24.86 15.6 60 33 -0.6 30.9
04:25 1013 29.91 842 24.86 15.4 59.8 33 -0.6 30.9
04:30 1013 29.91 842 24.86 15.6 60.1 32 -1 30.3
04:35 1013 29.91 842 24.86 15.8 60.4 30 -1.6 29
04:40 1013 29.91 842 24.86 15.8 60.4 32 -0.7 30.7
04:45 1013 29.91 842 24.86 15.6 60 33 -0.7 30.8
04:50 1013 29.91 842 24.86 15.3 59.5 34 -0.4 31.2
04:55 1013 29.91 842 24.86 14.8 58.6 43 2.3 36.1
05:00 1013 29.91 842 24.86 14.2 57.6 38 0.3 32.5
05:05 1013 29.91 842 24.86 13.8 56.9 39 0.1 32.1
05:10 1013 29.91 842 24.86 13.9 57.1 39 0.4 32.7
05:15 1013 29.91 842 24.86 14.3 57.7 34 -1.1 30
05:20 1013 29.91 842 24.86 15.2 59.3 34 -0.6 31
05:25 1013 29.91 842 24.86 15.2 59.4 33 -0.7 30.8
05:30 1013 29.91 842 24.86 15.4 59.7 30 -2.1 28.1
05:35 1013 29.91 843 24.89 15.9 60.5 32 -0.9 30.4
05:40 1013 29.91 843 24.89 15.4 59.7 32 -1.1 30.1
05:45 1013 29.91 843 24.89 15.1 59.1 33 -1.2 29.9
05:50 1013 29.91 843 24.89 15.5 59.8 32 -1 30.2
05:55 1013 29.91 843 24.89 14.9 58.9 35 -0.2 31.6
06:00 1013 29.91 843 24.89 14.5 58.2 37 0.1 32.2
06:05 1013 29.91 843 24.89 14.1 57.5 39 0.6 33
06:10 1013 29.91 843 24.89 13.8 56.9 39 0.3 32.6
06:15 1013 29.91 843 24.89 13.8 56.9 40 0.4 32.8
06:20 1013 29.91 843 24.89 14 57.2 39 0.4 32.6
06:25 1013 29.91 843 24.89 13.8 56.8 40 0.5 32.9
06:30 1013 29.91 843 24.89 14 57.3 38 0.2 32.3
06:35 1013 29.91 843 24.89 14.3 57.7 40 0.8 33.4
06:40 1013 29.91 843 24.89 14.3 57.8 40 0.8 33.5
06:45 1013 29.91 843 24.89 14.3 57.7 38 0.1 32.3
06:50 1013 29.91 843 24.89 14.5 58.2 40 1 33.9
06:55 1013 29.91 843 24.89 14.6 58.2 38 0.5 32.9
07:00 1013 29.91 843 24.89 15.1 59.2 37 0.8 33.4
07:05 1014 29.94 843 24.89 15.5 59.9 35 0.4 32.7
07:10 1014 29.94 843 24.89 15.8 60.5 40 2.4 36.3
07:15 1014 29.94 843 24.89 16.2 61.2 37 1.5 34.8
07:20 1014 29.94 843 24.89 16 60.8 38 1.7 35
07:25 1014 29.94 843 24.89 15.9 60.7 39 2.2 36
07:30 1014 29.94 843 24.89 15.8 60.4 40 2.3 36.2
07:35 1014 29.94 843 24.89 15.7 60.2 42 3 37.4
07:40 1014 29.94 843 24.89 15.6 60.1 42 2.7 36.9
07:45 1014 29.94 843 24.89 15.9 60.7 41 2.9 37.3
07:50 1014 29.94 843 24.89 16.4 61.5 41 3.2 37.7
07:55 1014 29.94 843 24.89 16.8 62.2 41 3.5 38.2
08:00 1014 29.94 843 24.89 17 62.5 39 3.2 37.7
08:05 1014 29.94 843 24.89 17.5 63.6 38 3.2 37.7
08:10 1014 29.94 843 24.89 18.2 64.7 37 3.3 37.9
08:15 1014 29.94 843 24.89 18.6 65.5 35 2.9 37.1
08:20 1014 29.94 843 24.89 18.8 65.9 34 2.8 37.1
08:25 1014 29.94 843 24.89 19.6 67.2 33 3.2 37.8
08:30 1014 29.94 843 24.89 20.2 68.4 30 2.5 36.5
08:35 1014 29.94 843 24.89 20.4 68.8 30 2.6 36.7
08:40 1014 29.94 843 24.89 21.1 69.9 31 3.4 38.1
08:45 1014 29.94 843 24.89 21.6 71 30 3.5 38.4
08:50 1014 29.94 843 24.89 22 71.7 30 3.9 39.1
08:55 1014 29.94 843 24.89 22.1 71.9 30 3.8 38.8
09:00 1014 29.94 843 24.89 22.3 72.2 28 2.9 37.3
09:05 1014 29.94 843 24.89 22.4 72.4 28 3.2 37.7
09:10 1014 29.94 844 24.92 22.4 72.4 31 4.6 40.3
09:15 1014 29.94 844 24.92 22 71.7 31 4.3 39.7
09:20 1014 29.94 844 24.92 21.3 70.4 32 4.1 39.4
09:25 1015 29.97 844 24.92 21 69.9 34 4.7 40.5
09:30 1015 29.97 844 24.92 21.1 70.1 34 4.9 40.7
09:35 1015 29.97 844 24.92 21.4 70.4 34 5 40.9
09:40 1015 29.97 844 24.92 21.7 71.1 34 5.5 41.8
09:45 1015 29.97 844 24.92 22.3 72.1 34 6 42.8
09:50 1015 29.97 844 24.92 22.1 71.8 36 6.6 43.9
09:55 1015 29.97 844 24.92 22.5 72.6 36 6.7 44.1
10:00 1015 29.97 844 24.92 23 73.4 35 6.8 44.3
10:05 1015 29.97 844 24.92 23 73.4 38 8.2 46.8
10:10 1015 29.97 844 24.92 22.6 72.6 40 8.4 47.1
10:15 1015 29.97 844 24.92 21.8 71.2 38 7 44.6
10:20 1015 29.97 844 24.92 21.5 70.7 41 8 46.3
10:25 1015 29.97 844 24.92 22.1 71.8 39 7.6 45.6
10:30 1015 29.97 844 24.92 22.4 72.3 38 7.4 45.4
10:35 1015 29.97 844 24.92 22.1 71.8 41 8.5 47.3
10:40 1015 29.97 844 24.92 21.3 70.4 43 8.6 47.4
10:45 1015 29.97 844 24.92 21.3 70.3 43 8.3 47
10:50 1015 29.97 844 24.92 21.2 70.1 44 8.6 47.5
10:55 1015 29.97 844 24.92 21.3 70.3 43 8.3 46.9
11:00 1015 29.97 844 24.92 22.5 72.5 40 8.4 47.2
11:05 1015 29.97 844 24.92 22.4 72.3 41 8.8 47.8
11:10 1015 29.97 844 24.92 23 73.3 42 9.6 49.3
11:15 1015 29.97 844 24.92 22.4 72.4 41 8.9 48
11:20 1015 29.97 844 24.92 22.9 73.3 39 8.5 47.4
11:25 1015 29.97 844 24.92 24 75.2 33 6.8 44.2
11:30 1015 29.97 844 24.92 24.6 76.3 33 7.3 45.2
11:35 1015 29.97 844 24.92 25 77 32 7.4 45.3
11:40 1015 29.97 844 24.92 25.4 77.8 32 7.7 45.8
11:45 1015 29.97 844 24.92 25 77 32 7.2 45
11:50 1015 29.97 844 24.92 25.1 77.1 31 7 44.5
11:55 1015 29.97 844 24.92 24.8 76.6 32 7.1 44.8
12:00 1015 29.97 844 24.92 24.6 76.3 33 7.6 45.7
12:05 1015 29.97 844 24.92 24.1 75.4 34 7.4 45.4
12:10 1015 29.97 844 24.92 24.5 76.1 34 8 46.4
12:15 1015 29.97 844 24.92 23.8 74.8 35 7.5 45.5
12:20 1015 29.97 844 24.92 23.8 74.8 34 7.1 44.8
12:25 1015 29.97 844 24.92 24 75.1 34 7.4 45.3
12:30 1015 29.97 844 24.92 24.2 75.6 33 6.9 44.5
12:35 1015 29.97 844 24.92 24.6 76.4 33 7.4 45.3
12:40 1015 29.97 844 24.92 25.2 77.3 32 7.8 46
12:45 1015 29.97 844 24.92 25.5 77.8 31 7.5 45.5
12:50 1014 29.94 844 24.92 25.4 77.6 32 7.7 45.8
12:55 1015 29.97 844 24.92 25.1 77.2 32 7.4 45.4
13:00 1015 29.97 844 24.92 24.6 76.2 34 8 46.5
13:05 1014 29.94 844 24.92 23.9 75.1 34 7.3 45.2
13:10 1014 29.94 844 24.92 23.4 74.1 34 6.9 44.4
13:15 1014 29.94 844 24.92 23.7 74.7 34 7.1 44.8
13:20 1014 29.94 844 24.92 24.8 76.6 32 7.1 44.7
13:25 1014 29.94 844 24.92 25.1 77.1 31 7.2 45
13:30 1014 29.94 844 24.92 25.4 77.6 31 7.5 45.5
13:35 1014 29.94 844 24.92 25.9 78.5 31 7.9 46.3
13:40 1014 29.94 844 24.92 26.3 79.3 31 8 46.3
13:45 1014 29.94 843 24.89 26.9 80.5 28 6.9 44.4
13:50 1014 29.94 843 24.89 26.9 80.4 30 8 46.4
13:55 1014 29.94 843 24.89 26.1 79 32 8.2 46.8
14:00 1014 29.94 843 24.89 25.5 77.9 32 7.7 45.8
14:05 1014 29.94 843 24.89 25.2 77.4 31 7 44.6
14:10 1014 29.94 843 24.89 25 76.9 32 7.4 45.3
14:15 1014 29.94 843 24.89 25.9 78.5 29 6.9 44.5
14:20 1014 29.94 843 24.89 26.6 79.9 29 7.3 45.1
14:25 1014 29.94 843 24.89 26.3 79.4 25 5.1 41.1
14:30 1014 29.94 843 24.89 27.3 81.1 25 6 42.8
14:35 1014 29.94 843 24.89 27.3 81.2 25 6 42.8
14:40 1014 29.94 843 24.89 27.8 82.1 24 5.5 41.9
14:45 1013 29.91 843 24.89 28.3 83 24 6.4 43.5
14:50 1013 29.91 843 24.89 28.2 82.8 25 6.4 43.6
14:55 1013 29.91 843 24.89 28.8 83.8 25 7.1 44.8
15:00 1013 29.91 843 24.89 28.7 83.6 24 6.2 43.1
15:05 1013 29.91 843 24.89 28.4 83 25 6.5 43.7
15:10 1013 29.91 843 24.89 28.8 83.8 24 6.4 43.6
15:15 1013 29.91 843 24.89 29.2 84.6 22 5.6 42
15:20 1013 29.91 842 24.86 29.2 84.6 23 6 42.8
15:25 1013 29.91 842 24.86 28.7 83.6 24 6.1 43.1
15:30 1013 29.91 842 24.86 28.5 83.3 26 7.5 45.4
15:35 1013 29.91 842 24.86 28.3 83 25 6.9 44.4
15:40 1013 29.91 842 24.86 27 80.5 27 6.5 43.8
15:45 1013 29.91 842 24.86 26.3 79.4 26 5.4 41.8
15:50 1013 29.91 842 24.86 26.5 79.8 25 5.2 41.4
15:55 1013 29.91 842 24.86 26.5 79.8 25 5.1 41.2
16:00 1013 29.91 842 24.86 26.8 80.3 25 5.4 41.8
16:05 1013 29.91 842 24.86 27.5 81.5 22 4.3 39.7
16:10 1013 29.91 842 24.86 27.7 81.9 22 4.6 40.2
16:15 1013 29.91 842 24.86 27.4 81.2 24 5.1 41.2
16:20 1013 29.91 842 24.86 27.2 80.9 21 3.5 38.3
16:25 1013 29.91 842 24.86 28.1 82.5 21 4.1 39.3
16:30 1013 29.91 842 24.86 28.7 83.6 21 4.2 39.6
16:35 1013 29.91 842 24.86 28.9 83.9 21 4.5 40.1
16:40 1013 29.91 842 24.86 29.2 84.6 21 4.6 40.3
16:45 1013 29.91 842 24.86 29.5 85 20 4.5 40.1
16:50 1013 29.91 842 24.86 29.5 85 20 4.7 40.4
16:55 1013 29.91 842 24.86 29.3 84.8 20 4.7 40.4
17:00 1013 29.91 842 24.86 29.7 85.5 21 5.1 41.3
17:05 1012 29.88 842 24.86 29.2 84.5 20 4.5 40.1
17:10 1012 29.88 842 24.86 29.2 84.6 20 4.2 39.6
17:15 1012 29.88 842 24.86 28.8 83.9 20 3.7 38.6
17:20 1012 29.88 842 24.86 29.5 85 19 3.7 38.7
17:25 1012 29.88 841 24.83 29.7 85.5 19 4 39.2
17:30 1012 29.88 841 24.83 29.6 85.3 19 3.7 38.6
17:35 1012 29.88 841 24.83 29.7 85.5 19 4 39.2
17:40 1012 29.88 841 24.83 29.8 85.6 19 4.1 39.4
17:45 1012 29.88 841 24.83 28.8 83.8 20 4 39.3
17:50 1012 29.88 841 24.83 29.3 84.8 20 4.2 39.6
17:55 1012 29.88 841 24.83 29.2 84.6 20 4.1 39.3
18:00 1012 29.88 841 24.83 28.7 83.7 20 3.6 38.5
18:05 1012 29.88 841 24.83 28.1 82.5 20 3.6 38.5
18:10 1012 29.88 841 24.83 28 82.3 20 3.4 38.2
18:15 1012 29.88 841 24.83 27.8 82 21 3.5 38.2
18:20 1012 29.88 841 24.83 27.5 81.6 21 3.6 38.5
18:25 1012 29.88 841 24.83 27.7 81.9 20 3.2 37.8
18:30 1012 29.88 841 24.83 28.4 83 19 3.2 37.7
18:35 1012 29.88 841 24.83 28.4 83.1 20 3.9 39
18:40 1012 29.88 841 24.83 28.6 83.5 20 3.8 38.9
18:45 1012 29.88 841 24.83 28.2 82.7 21 4.2 39.6
18:50 1012 29.88 841 24.83 27.3 81.1 23 4.7 40.4
18:55 1012 29.88 841 24.83 27.1 80.8 22 3.9 39
19:00 1012 29.88 841 24.83 27.4 81.3 23 4.6 40.4
19:05 1012 29.88 841 24.83 27.6 81.7 22 4.4 39.9
19:10 1012 29.88 841 24.83 27.8 82 21 3.6 38.5
19:15 1011 29.85 841 24.83 27.9 82.2 22 4.7 40.4
19:20 1011 29.85 841 24.83 27.7 81.8 22 4.6 40.2
19:25 1011 29.85 841 24.83 27.6 81.8 23 4.7 40.4
19:30 1011 29.85 841 24.83 27.8 82 23 4.9 40.9
19:35 1012 29.88 841 24.83 27.4 81.3 23 4.7 40.4
19:40 1011 29.85 841 24.83 27.1 80.7 24 5 41
19:45 1011 29.85 841 24.83 27 80.6 24 5.3 41.5
19:50 1012 29.88 841 24.83 26.9 80.5 24 5 41.1
19:55 1012 29.88 841 24.83 26.9 80.4 24 4.9 40.8
20:00 1012 29.88 841 24.83 26.9 80.3 25 5.6 42
20:05 1012 29.88 841 24.83 26.7 80.1 25 5.5 41.8
20:10 1012 29.88 841 24.83 26.7 80 25 5.4 41.7
20:15 1012 29.88 841 24.83 26.5 79.7 32 8.9 48
20:20 1012 29.88 841 24.83 26.3 79.4 29 7.3 45.1
20:25 1012 29.88 841 24.83 26.3 79.4 25 5.1 41.1
20:30 1012 29.88 841 24.83 26.3 79.3 30 7.6 45.7
20:35 1012 29.88 841 24.83 26.2 79.1 32 8.6 47.5
20:40 1012 29.88 841 24.83 25.9 78.6 33 8.6 47.6
20:45 1012 29.88 841 24.83 25.3 77.6 36 9.6 49.3
20:50 1012 29.88 841 24.83 24.9 76.9 39 10.2 50.4
20:55 1012 29.88 841 24.83 24.8 76.6 36 9 48.2
21:00 1012 29.88 841 24.83 24.7 76.4 37 9.1 48.3
21:05 1012 29.88 841 24.83 24.3 75.8 42 10.7 51.3
21:10 1012 29.88 841 24.83 23.7 74.6 41 9.9 49.8
21:15 1012 29.88 841 24.83 23.4 74.2 40 9.3 48.8
21:20 1012 29.88 841 24.83 23.1 73.5 46 11 51.9
21:25 1012 29.88 841 24.83 22.3 72.2 48 11.1 52
21:30 1012 29.88 841 24.83 22.2 72 43 9.3 48.7
21:35 1012 29.88 841 24.83 22.1 71.8 34 5.5 41.9
21:40 1012 29.88 841 24.83 21.9 71.3 31 4.3 39.7
21:45 1012 29.88 841 24.83 21.8 71.2 34 5.4 41.8
21:50 1012 29.88 841 24.83 21.5 70.6 35 5.5 42
21:55 1012 29.88 841 24.83 21 69.8 35 5.3 41.5
22:00 1012 29.88 841 24.83 20.5 68.8 42 7.3 45.1
22:05 1012 29.88 841 24.83 20.1 68.2 41 6.6 43.9
22:10 1012 29.88 842 24.86 20.2 68.3 35 4.3 39.8
22:15 1012 29.88 842 24.86 20.6 69 34 4.4 39.9
22:20 1012 29.88 842 24.86 20.4 68.7 36 4.8 40.6
22:25 1012 29.88 842 24.86 20 68.1 36 4.6 40.2
22:30 1012 29.88 842 24.86 20.3 68.5 39 6 42.8
22:35 1012 29.88 842 24.86 20.2 68.4 44 7.7 45.8
22:40 1013 29.91 842 24.86 20.1 68.2 45 8.1 46.5
22:45 1012 29.88 842 24.86 20.3 68.5 45 8.2 46.7
22:50 1013 29.91 842 24.86 20.3 68.6 48 9.1 48.4
22:55 1013 29.91 842 24.86 20.2 68.3 48 9.1 48.3
23:00 1013 29.91 842 24.86 20.2 68.3 42 7 44.5
23:05 1013 29.91 842 24.86 20.2 68.3 40 6.5 43.7
23:10 1013 29.91 842 24.86 20.6 69 41 7 44.5
23:15 1013 29.91 842 24.86 21.1 69.9 35 5.3 41.6
23:20 1013 29.91 842 24.86 20.9 69.5 35 4.9 40.8
23:25 1013 29.91 842 24.86 20.7 69.3 33 4.1 39.4
23:30 1013 29.91 842 24.86 20.9 69.6 36 5.3 41.6
23:35 1013 29.91 842 24.86 20.8 69.5 31 3.4 38.1
23:40 1013 29.91 842 24.86 20 67.9 29 1.8 35.2
23:45 1013 29.91 842 24.86 19.8 67.6 38 5 41.1
23:50 1013 29.91 842 24.86 18.9 66 42 5.9 42.7
23:55 1013 29.91 842 24.86 18.9 66 50 8.4 47.1
24:00 1013 29.91 842 24.86 18.9 66 51 8.6 47.4